Maydelle, Texas
Current Conditions -  °F | °C
As of 2:15 PM on Friday 21 Nov 2014 (Local Time) from KJSO Reporting Station
Drizzle Drizzle  
Wind Chill: 62°   Ceiling: 500
Heat Index: 62°   Visibility: 4mi
Dew Point: 61°   Wind: 7mph
Humidity: 97%   Direction: 140°SE
Pressure: 30.13"   Gusts: NA
Location:  31.8°N, 95.3°W
Report Text: KJSO 212015Z AUTO 14006KT 4SM DZ OVC005 16/16 A3013 RMK AO2 T01650160
Loading
Personal Weather Stations






























Interactive Weather Map New forecast layout! Learn more

10-Day Weather Forecast

Advertisements
Track Severe Weather on mobile